Terminal Aerodrome Forecast
Issued by NWS Paducah, KY

Home | Current Version | Previous Version | Text Only | Print | Product List | Glossary On
Versions: 1 2 3 4 5 6 7 8 9 10 11 12 13 14 15 16 17 18 19 20
189
FTUS43 KPAH 282320
TAFPAH
TAF
KPAH 282320Z 2900/2924 19006KT P6SM SCT035 BKN150
     FM290600 VRB03KT P6SM SCT150
     FM291600 25006KT P6SM VCTS SCT035CB BKN070
     FM292200 30007KT P6SM BKN040=

USA.gov is the U.S. government's official web portal to all federal, state and local government web resources and services.